Aérodrome :
LOGIN :

S'inscrire | Disclaimer

   EN    FR    IT 

 










Légende :    VFR   VFR Marginal   IFR   IFR Intensif   IFR Très Intensif
Visi : 
Plafond : 
>= 8 km
>= 3000ft
5 à 8 km
1000 à 3000 ft
1500m à 5 km
500 à 1000 ft
800 à 1500m
200 à 500 ft
< 800m
< 200 ft
Symboles :   Orages  Brouillard  Fortes neiges  Fortes précipitations  Vent > 20 kt
SIGMETs :   Divers  Orages  Givrage  Turbulence  Onde Orograph.  Cendres Volcan.







- Altitude de l'aérodrome : 3 ft
- Code IATA : LWR


EHLW - Leuuwarden Air Base

DERNIER METAR :
  • 261555Z AUTO 28010KT 9999 OVC056 08/05 Q1029 BLU

METARs EXPIRÉS :
  • 261525Z AUTO 28012KT 270V330 9999 FEW010 OVC053 08/06 Q1029 BLU
  • 261455Z AUTO 29012KT 260V320 9999 FEW012 OVC053 09/05 Q1029 BLU
  • 261425Z AUTO 29013KT 9999 OVC053 09/05 Q1029 BLU
  • 261355Z AUTO 28013KT 250V320 9999 OVC058 09/05 Q1029 BLU
  • 261325Z AUTO 28011KT 240V320 9999 OVC057 09/05 Q1029 BLU

TAF TAF EHLW
Valide du 26 à 14h jusqu'au 27 à 02h UTC


261314Z 2614/2702 30013KT CAVOK
BECMG 2617/2619 28005KT
TEMPO 2619/2623 BKN010
PROB30 2700/2702 1000 BR MIFG
Pas de NOTAMs connus pour ce terrain.



MET'MAP, la Météo Aéronautique d'un coup d'oeil ! - Copyright ORBIFLY Décembre 2007 - Disclaimer

ORBIFLY MET'MAP TEAM :

Programmation & Développement : Alexandra Zaïnal
Conception & Développement : Baudouin d'Aumeries
Co-Programmation & Développement : Marc-Olivier Méhu
Soutien technique & logistique : Manuel Goepfert

Contact : metmap@orbifly.com




SOURCES & CREDITS :

   NOAA